sensor_id;sensor_type;location;lat;lon;timestamp;P1;durP1;ratioP1;P2;durP2;ratioP2
3767;SDS011;1899;49.966;7.106;2022-12-18T05:01:39;24.55;;;15.18;;
3767;SDS011;1899;49.966;7.106;2022-12-18T05:04:04;23.83;;;14.80;;
3767;SDS011;1899;49.966;7.106;2022-12-18T05:06:29;24.23;;;14.70;;
3767;SDS011;1899;49.966;7.106;2022-12-18T05:08:54;22.08;;;14.55;;
3767;SDS011;1899;49.966;7.106;2022-12-18T05:11:20;26.60;;;15.43;;
3767;SDS011;1899;49.966;7.106;2022-12-18T05:13:45;23.60;;;14.80;;
3767;SDS011;1899;49.966;7.106;2022-12-18T05:16:11;27.20;;;15.40;;
3767;SDS011;1899;49.966;7.106;2022-12-18T05:18:36;23.65;;;14.63;;
3767;SDS011;1899;49.966;7.106;2022-12-18T05:21:02;24.93;;;15.20;;
3767;SDS011;1899;49.966;7.106;2022-12-18T05:23:27;24.33;;;16.35;;
3767;SDS011;1899;49.966;7.106;2022-12-18T05:25:53;26.10;;;15.97;;
3767;SDS011;1899;49.966;7.106;2022-12-18T05:28:19;26.45;;;15.98;;
3767;SDS011;1899;49.966;7.106;2022-12-18T05:30:48;26.08;;;15.85;;
3767;SDS011;1899;49.966;7.106;2022-12-18T05:33:14;27.02;;;15.15;;
3767;SDS011;1899;49.966;7.106;2022-12-18T05:35:39;25.10;;;14.90;;
3767;SDS011;1899;49.966;7.106;2022-12-18T05:38:05;25.03;;;14.90;;
3767;SDS011;1899;49.966;7.106;2022-12-18T05:40:30;26.30;;;15.90;;
3767;SDS011;1899;49.966;7.106;2022-12-18T05:42:55;26.25;;;15.90;;
3767;SDS011;1899;49.966;7.106;2022-12-18T05:45:20;26.33;;;16.43;;
3767;SDS011;1899;49.966;7.106;2022-12-18T05:47:46;27.67;;;15.00;;
3767;SDS011;1899;49.966;7.106;2022-12-18T05:50:11;23.00;;;15.03;;
3767;SDS011;1899;49.966;7.106;2022-12-18T05:52:36;24.23;;;15.47;;
3767;SDS011;1899;49.966;7.106;2022-12-18T05:55:01;24.73;;;15.53;;
3767;SDS011;1899;49.966;7.106;2022-12-18T05:57:27;23.73;;;15.87;;
3767;SDS011;1899;49.966;7.106;2022-12-18T05:59:52;25.57;;;16.00;;
3767;SDS011;1899;49.966;7.106;2022-12-18T06:02:17;27.25;;;16.65;;
3767;SDS011;1899;49.966;7.106;2022-12-18T06:04:43;27.43;;;16.37;;
3767;SDS011;1899;49.966;7.106;2022-12-18T06:07:08;23.87;;;15.50;;
3767;SDS011;1899;49.966;7.106;2022-12-18T06:09:33;26.60;;;16.03;;
3767;SDS011;1899;49.966;7.106;2022-12-18T06:11:58;25.87;;;15.37;;
3767;SDS011;1899;49.966;7.106;2022-12-18T06:14:24;25.40;;;15.60;;
3767;SDS011;1899;49.966;7.106;2022-12-18T06:16:50;26.70;;;16.20;;
3767;SDS011;1899;49.966;7.106;2022-12-18T06:19:16;23.45;;;15.00;;
3767;SDS011;1899;49.966;7.106;2022-12-18T06:21:41;28.35;;;16.63;;
3767;SDS011;1899;49.966;7.106;2022-12-18T06:24:07;25.67;;;15.43;;
3767;SDS011;1899;49.966;7.106;2022-12-18T06:26:32;25.17;;;15.90;;
3767;SDS011;1899;49.966;7.106;2022-12-18T06:28:58;26.17;;;15.63;;
3767;SDS011;1899;49.966;7.106;2022-12-18T06:31:23;22.63;;;14.70;;
3767;SDS011;1899;49.966;7.106;2022-12-18T06:33:48;24.37;;;14.60;;
3767;SDS011;1899;49.966;7.106;2022-12-18T06:36:14;24.43;;;15.73;;
3767;SDS011;1899;49.966;7.106;2022-12-18T06:38:40;25.70;;;16.50;;
3767;SDS011;1899;49.966;7.106;2022-12-18T06:41:09;25.13;;;15.45;;
3767;SDS011;1899;49.966;7.106;2022-12-18T06:43:35;27.77;;;15.75;;
3767;SDS011;1899;49.966;7.106;2022-12-18T06:46:01;25.55;;;16.38;;
3767;SDS011;1899;49.966;7.106;2022-12-18T06:48:27;26.15;;;15.90;;
3767;SDS011;1899;49.966;7.106;2022-12-18T06:50:52;25.60;;;16.13;;
3767;SDS011;1899;49.966;7.106;2022-12-18T06:53:17;26.40;;;15.70;;
3767;SDS011;1899;49.966;7.106;2022-12-18T06:55:43;28.17;;;15.77;;
3767;SDS011;1899;49.966;7.106;2022-12-18T06:58:08;26.60;;;16.43;;
3767;SDS011;1899;49.966;7.106;2022-12-18T07:00:33;25.50;;;16.57;;
3767;SDS011;1899;49.966;7.106;2022-12-18T07:02:58;23.37;;;14.30;;
3767;SDS011;1899;49.966;7.106;2022-12-18T07:05:24;37.03;;;21.47;;
3767;SDS011;1899;49.966;7.106;2022-12-18T07:07:49;29.80;;;17.85;;
3767;SDS011;1899;49.966;7.106;2022-12-18T07:10:14;30.63;;;17.90;;
3767;SDS011;1899;49.966;7.106;2022-12-18T07:12:39;26.50;;;16.60;;
3767;SDS011;1899;49.966;7.106;2022-12-18T07:15:06;22.90;;;15.27;;
3767;SDS011;1899;49.966;7.106;2022-12-18T07:17:31;22.83;;;15.70;;
3767;SDS011;1899;49.966;7.106;2022-12-18T07:19:57;25.60;;;14.83;;
3767;SDS011;1899;49.966;7.106;2022-12-18T07:22:22;32.70;;;18.00;;
3767;SDS011;1899;49.966;7.106;2022-12-18T07:24:47;27.80;;;17.60;;
3767;SDS011;1899;49.966;7.106;2022-12-18T07:27:13;27.73;;;16.57;;
3767;SDS011;1899;49.966;7.106;2022-12-18T07:29:38;22.10;;;15.33;;
3767;SDS011;1899;49.966;7.106;2022-12-18T07:32:03;26.88;;;16.27;;
3767;SDS011;1899;49.966;7.106;2022-12-18T07:34:28;24.15;;;15.63;;
3767;SDS011;1899;49.966;7.106;2022-12-18T07:36:54;25.60;;;15.10;;
3767;SDS011;1899;49.966;7.106;2022-12-18T07:39:19;27.10;;;17.23;;
3767;SDS011;1899;49.966;7.106;2022-12-18T07:41:44;27.30;;;16.53;;
3767;SDS011;1899;49.966;7.106;2022-12-18T07:44:29;31.52;;;17.75;;
3767;SDS011;1899;49.966;7.106;2022-12-18T07:46:55;31.60;;;17.80;;
3767;SDS011;1899;49.966;7.106;2022-12-18T07:49:20;32.17;;;18.13;;
3767;SDS011;1899;49.966;7.106;2022-12-18T07:51:45;27.40;;;17.00;;
3767;SDS011;1899;49.966;7.106;2022-12-18T07:54:14;28.38;;;17.23;;
3767;SDS011;1899;49.966;7.106;2022-12-18T07:56:39;26.67;;;16.67;;
3767;SDS011;1899;49.966;7.106;2022-12-18T07:59:04;24.33;;;15.37;;
3767;SDS011;1899;49.966;7.106;2022-12-18T08:01:29;23.93;;;15.27;;
3767;SDS011;1899;49.966;7.106;2022-12-18T08:03:54;25.53;;;15.00;;
3767;SDS011;1899;49.966;7.106;2022-12-18T08:06:20;25.43;;;15.70;;
3767;SDS011;1899;49.966;7.106;2022-12-18T08:08:45;23.50;;;14.40;;
3767;SDS011;1899;49.966;7.106;2022-12-18T08:11:10;24.17;;;14.57;;
3767;SDS011;1899;49.966;7.106;2022-12-18T08:13:36;22.77;;;14.63;;
3767;SDS011;1899;49.966;7.106;2022-12-18T08:16:02;21.67;;;14.00;;
3767;SDS011;1899;49.966;7.106;2022-12-18T08:18:28;24.88;;;16.15;;
3767;SDS011;1899;49.966;7.106;2022-12-18T08:20:53;27.10;;;15.40;;
3767;SDS011;1899;49.966;7.106;2022-12-18T08:23:19;26.15;;;16.08;;
3767;SDS011;1899;49.966;7.106;2022-12-18T08:25:44;22.20;;;15.13;;
3767;SDS011;1899;49.966;7.106;2022-12-18T08:28:09;25.23;;;16.40;;
3767;SDS011;1899;49.966;7.106;2022-12-18T08:30:35;26.83;;;16.02;;
3767;SDS011;1899;49.966;7.106;2022-12-18T08:33:01;25.97;;;15.83;;
3767;SDS011;1899;49.966;7.106;2022-12-18T08:35:26;29.80;;;17.97;;
3767;SDS011;1899;49.966;7.106;2022-12-18T08:37:52;27.17;;;16.77;;
3767;SDS011;1899;49.966;7.106;2022-12-18T08:40:17;23.53;;;15.97;;
3767;SDS011;1899;49.966;7.106;2022-12-18T08:42:42;25.20;;;15.97;;
3767;SDS011;1899;49.966;7.106;2022-12-18T08:45:26;28.98;;;17.02;;
3767;SDS011;1899;49.966;7.106;2022-12-18T08:47:52;27.23;;;15.80;;
3767;SDS011;1899;49.966;7.106;2022-12-18T08:50:17;23.83;;;15.67;;
3767;SDS011;1899;49.966;7.106;2022-12-18T08:52:42;24.23;;;16.43;;
3767;SDS011;1899;49.966;7.106;2022-12-18T08:55:08;27.60;;;17.10;;
3767;SDS011;1899;49.966;7.106;2022-12-18T08:57:33;24.73;;;15.87;;
3767;SDS011;1899;49.966;7.106;2022-12-18T08:59:58;28.10;;;16.60;;
3767;SDS011;1899;49.966;7.106;2022-12-18T09:02:24;25.58;;;15.85;;
3767;SDS011;1899;49.966;7.106;2022-12-18T09:04:49;23.92;;;15.50;;
3767;SDS011;1899;49.966;7.106;2022-12-18T09:07:15;26.00;;;16.00;;
3767;SDS011;1899;49.966;7.106;2022-12-18T09:09:40;26.97;;;17.70;;
3767;SDS011;1899;49.966;7.106;2022-12-18T09:12:05;23.90;;;16.40;;
3767;SDS011;1899;49.966;7.106;2022-12-18T09:14:30;24.77;;;16.20;;
3767;SDS011;1899;49.966;7.106;2022-12-18T09:16:56;25.90;;;16.20;;
3767;SDS011;1899;49.966;7.106;2022-12-18T09:19:21;23.87;;;16.27;;
3767;SDS011;1899;49.966;7.106;2022-12-18T09:21:46;24.93;;;16.80;;
3767;SDS011;1899;49.966;7.106;2022-12-18T09:24:12;24.20;;;16.37;;
3767;SDS011;1899;49.966;7.106;2022-12-18T09:26:38;23.27;;;15.57;;
3767;SDS011;1899;49.966;7.106;2022-12-18T09:29:03;23.80;;;16.17;;
3767;SDS011;1899;49.966;7.106;2022-12-18T09:31:28;25.93;;;16.17;;
3767;SDS011;1899;49.966;7.106;2022-12-18T09:33:54;25.27;;;16.90;;
3767;SDS011;1899;49.966;7.106;2022-12-18T09:36:20;27.33;;;16.70;;
3767;SDS011;1899;49.966;7.106;2022-12-18T09:38:45;29.33;;;17.57;;
3767;SDS011;1899;49.966;7.106;2022-12-18T09:43:55;26.95;;;16.98;;
3767;SDS011;1899;49.966;7.106;2022-12-18T09:46:23;26.38;;;17.05;;
3767;SDS011;1899;49.966;7.106;2022-12-18T09:48:51;25.85;;;17.35;;
3767;SDS011;1899;49.966;7.106;2022-12-18T09:51:22;26.63;;;17.33;;
3767;SDS011;1899;49.966;7.106;2022-12-18T09:53:52;28.40;;;17.67;;
3767;SDS011;1899;49.966;7.106;2022-12-18T09:56:19;27.77;;;18.83;;
3767;SDS011;1899;49.966;7.106;2022-12-18T09:58:49;29.38;;;19.42;;
3767;SDS011;1899;49.966;7.106;2022-12-18T10:01:23;26.10;;;16.67;;
3767;SDS011;1899;49.966;7.106;2022-12-18T10:03:48;24.20;;;16.23;;
3767;SDS011;1899;49.966;7.106;2022-12-18T10:06:35;27.35;;;17.63;;
3767;SDS011;1899;49.966;7.106;2022-12-18T10:14:07;27.48;;;17.90;;
3767;SDS011;1899;49.966;7.106;2022-12-18T10:16:36;33.58;;;20.45;;
3767;SDS011;1899;49.966;7.106;2022-12-18T10:19:11;32.42;;;20.08;;
3767;SDS011;1899;49.966;7.106;2022-12-18T10:21:43;33.00;;;21.70;;
3767;SDS011;1899;49.966;7.106;2022-12-18T10:24:20;31.25;;;19.80;;
3767;SDS011;1899;49.966;7.106;2022-12-18T10:26:49;31.97;;;20.73;;
3767;SDS011;1899;49.966;7.106;2022-12-18T10:29:16;33.25;;;20.55;;
3767;SDS011;1899;49.966;7.106;2022-12-18T10:31:41;33.35;;;21.30;;
3767;SDS011;1899;49.966;7.106;2022-12-18T10:34:10;32.53;;;21.27;;
3767;SDS011;1899;49.966;7.106;2022-12-18T10:36:36;38.00;;;24.40;;
3767;SDS011;1899;49.966;7.106;2022-12-18T10:39:15;40.30;;;24.37;;
3767;SDS011;1899;49.966;7.106;2022-12-18T10:41:40;39.63;;;24.10;;
3767;SDS011;1899;49.966;7.106;2022-12-18T10:44:16;36.50;;;23.10;;
3767;SDS011;1899;49.966;7.106;2022-12-18T10:46:43;38.90;;;24.88;;
3767;SDS011;1899;49.966;7.106;2022-12-18T10:49:18;42.08;;;25.23;;
3767;SDS011;1899;49.966;7.106;2022-12-18T10:51:43;40.42;;;24.45;;
3767;SDS011;1899;49.966;7.106;2022-12-18T10:54:16;39.07;;;23.50;;
3767;SDS011;1899;49.966;7.106;2022-12-18T10:56:42;40.70;;;25.00;;
3767;SDS011;1899;49.966;7.106;2022-12-18T10:59:08;40.67;;;23.87;;
3767;SDS011;1899;49.966;7.106;2022-12-18T11:01:56;38.45;;;24.42;;
3767;SDS011;1899;49.966;7.106;2022-12-18T11:04:31;39.92;;;24.27;;
3767;SDS011;1899;49.966;7.106;2022-12-18T11:09:22;36.63;;;22.70;;
3767;SDS011;1899;49.966;7.106;2022-12-18T11:11:49;38.85;;;23.65;;
3767;SDS011;1899;49.966;7.106;2022-12-18T11:15:02;36.63;;;24.00;;
3767;SDS011;1899;49.966;7.106;2022-12-18T11:17:02;41.13;;;25.35;;
3767;SDS011;1899;49.966;7.106;2022-12-18T11:19:37;39.80;;;23.73;;
3767;SDS011;1899;49.966;7.106;2022-12-18T11:22:18;38.90;;;24.40;;
3767;SDS011;1899;49.966;7.106;2022-12-18T11:24:49;40.35;;;25.88;;
3767;SDS011;1899;49.966;7.106;2022-12-18T11:27:17;39.80;;;26.33;;
3767;SDS011;1899;49.966;7.106;2022-12-18T11:29:43;38.30;;;24.45;;
3767;SDS011;1899;49.966;7.106;2022-12-18T11:34:39;36.92;;;24.02;;
3767;SDS011;1899;49.966;7.106;2022-12-18T11:37:07;38.13;;;23.63;;
3767;SDS011;1899;49.966;7.106;2022-12-18T11:39:38;41.58;;;25.83;;
3767;SDS011;1899;49.966;7.106;2022-12-18T11:42:09;41.28;;;24.48;;
3767;SDS011;1899;49.966;7.106;2022-12-18T11:44:47;36.23;;;23.30;;
3767;SDS011;1899;49.966;7.106;2022-12-18T11:49:38;38.63;;;24.80;;
3767;SDS011;1899;49.966;7.106;2022-12-18T11:54:37;41.10;;;24.90;;
3767;SDS011;1899;49.966;7.106;2022-12-18T12:05:14;37.25;;;24.55;;
3767;SDS011;1899;49.966;7.106;2022-12-18T12:10:25;39.00;;;26.20;;
3767;SDS011;1899;49.966;7.106;2022-12-18T12:15:38;39.38;;;25.17;;
3767;SDS011;1899;49.966;7.106;2022-12-18T12:18:07;39.80;;;25.20;;
3767;SDS011;1899;49.966;7.106;2022-12-18T12:23:23;40.78;;;25.60;;
3767;SDS011;1899;49.966;7.106;2022-12-18T12:33:27;41.77;;;24.80;;
3767;SDS011;1899;49.966;7.106;2022-12-18T12:38:40;40.85;;;25.35;;
3767;SDS011;1899;49.966;7.106;2022-12-18T12:41:09;38.33;;;24.52;;
3767;SDS011;1899;49.966;7.106;2022-12-18T12:43:55;36.70;;;24.00;;
3767;SDS011;1899;49.966;7.106;2022-12-18T12:46:22;36.22;;;23.25;;
3767;SDS011;1899;49.966;7.106;2022-12-18T12:51:18;35.50;;;24.00;;
3767;SDS011;1899;49.966;7.106;2022-12-18T12:53:44;37.83;;;25.25;;
3767;SDS011;1899;49.966;7.106;2022-12-18T12:56:11;38.63;;;24.50;;
3767;SDS011;1899;49.966;7.106;2022-12-18T12:58:49;38.08;;;24.08;;
3767;SDS011;1899;49.966;7.106;2022-12-18T13:01:20;36.10;;;24.77;;
3767;SDS011;1899;49.966;7.106;2022-12-18T13:09:29;34.92;;;23.65;;
3767;SDS011;1899;49.966;7.106;2022-12-18T13:11:54;38.70;;;23.65;;
3767;SDS011;1899;49.966;7.106;2022-12-18T13:14:45;36.22;;;22.80;;
3767;SDS011;1899;49.966;7.106;2022-12-18T13:19:47;36.65;;;23.92;;
3767;SDS011;1899;49.966;7.106;2022-12-18T13:22:20;33.10;;;22.38;;
3767;SDS011;1899;49.966;7.106;2022-12-18T13:24:46;36.70;;;23.83;;
3767;SDS011;1899;49.966;7.106;2022-12-18T13:29:56;36.13;;;23.97;;
3767;SDS011;1899;49.966;7.106;2022-12-18T13:32:25;36.30;;;24.57;;
3767;SDS011;1899;49.966;7.106;2022-12-18T13:37:41;34.85;;;23.40;;
3767;SDS011;1899;49.966;7.106;2022-12-18T13:45:49;34.38;;;22.73;;
3767;SDS011;1899;49.966;7.106;2022-12-18T13:48:24;36.20;;;24.45;;
3767;SDS011;1899;49.966;7.106;2022-12-18T13:50:55;40.83;;;25.50;;
3767;SDS011;1899;49.966;7.106;2022-12-18T13:53:23;39.30;;;24.92;;
3767;SDS011;1899;49.966;7.106;2022-12-18T13:55:50;35.88;;;23.23;;
3767;SDS011;1899;49.966;7.106;2022-12-18T13:58:17;34.67;;;23.23;;
3767;SDS011;1899;49.966;7.106;2022-12-18T14:00:43;37.30;;;24.80;;
3767;SDS011;1899;49.966;7.106;2022-12-18T14:03:16;38.88;;;28.17;;
3767;SDS011;1899;49.966;7.106;2022-12-18T14:05:42;36.50;;;24.00;;
3767;SDS011;1899;49.966;7.106;2022-12-18T14:08:13;38.53;;;25.02;;
3767;SDS011;1899;49.966;7.106;2022-12-18T14:10:42;40.17;;;25.50;;
3767;SDS011;1899;49.966;7.106;2022-12-18T14:13:09;39.60;;;25.10;;
3767;SDS011;1899;49.966;7.106;2022-12-18T14:15:36;37.40;;;24.63;;
3767;SDS011;1899;49.966;7.106;2022-12-18T14:18:19;41.90;;;26.08;;
3767;SDS011;1899;49.966;7.106;2022-12-18T14:20:45;41.03;;;26.02;;
3767;SDS011;1899;49.966;7.106;2022-12-18T14:25:56;44.60;;;28.25;;
3767;SDS011;1899;49.966;7.106;2022-12-18T14:28:21;42.97;;;29.73;;
3767;SDS011;1899;49.966;7.106;2022-12-18T14:30:47;41.42;;;27.50;;
3767;SDS011;1899;49.966;7.106;2022-12-18T14:33:20;45.27;;;28.57;;
3767;SDS011;1899;49.966;7.106;2022-12-18T14:35:53;42.13;;;26.92;;
3767;SDS011;1899;49.966;7.106;2022-12-18T14:40:53;38.85;;;25.52;;
3767;SDS011;1899;49.966;7.106;2022-12-18T14:43:19;40.40;;;25.63;;
3767;SDS011;1899;49.966;7.106;2022-12-18T14:45:44;37.73;;;24.30;;
3767;SDS011;1899;49.966;7.106;2022-12-18T14:50:36;44.43;;;26.40;;
3767;SDS011;1899;49.966;7.106;2022-12-18T14:53:01;41.93;;;26.70;;
3767;SDS011;1899;49.966;7.106;2022-12-18T14:55:26;39.73;;;25.70;;
3767;SDS011;1899;49.966;7.106;2022-12-18T14:57:52;41.10;;;25.20;;
3767;SDS011;1899;49.966;7.106;2022-12-18T15:00:20;40.35;;;25.77;;
3767;SDS011;1899;49.966;7.106;2022-12-18T15:02:46;35.30;;;23.10;;
3767;SDS011;1899;49.966;7.106;2022-12-18T15:07:42;39.33;;;25.80;;
3767;SDS011;1899;49.966;7.106;2022-12-18T15:12:33;42.60;;;27.03;;
3767;SDS011;1899;49.966;7.106;2022-12-18T15:14:59;44.13;;;27.38;;
3767;SDS011;1899;49.966;7.106;2022-12-18T15:17:24;41.20;;;25.20;;
3767;SDS011;1899;49.966;7.106;2022-12-18T15:19:51;41.30;;;26.90;;
3767;SDS011;1899;49.966;7.106;2022-12-18T15:22:19;42.70;;;26.40;;
3767;SDS011;1899;49.966;7.106;2022-12-18T15:24:45;42.90;;;27.02;;
3767;SDS011;1899;49.966;7.106;2022-12-18T15:27:24;43.30;;;26.80;;
3767;SDS011;1899;49.966;7.106;2022-12-18T15:32:30;51.22;;;29.10;;
3767;SDS011;1899;49.966;7.106;2022-12-18T15:37:32;45.15;;;28.10;;
3767;SDS011;1899;49.966;7.106;2022-12-18T15:39:58;49.20;;;30.10;;
3767;SDS011;1899;49.966;7.106;2022-12-18T15:42:23;50.53;;;28.80;;
3767;SDS011;1899;49.966;7.106;2022-12-18T15:45:10;49.97;;;28.40;;
3767;SDS011;1899;49.966;7.106;2022-12-18T15:47:36;50.23;;;29.40;;
3767;SDS011;1899;49.966;7.106;2022-12-18T15:50:01;47.77;;;29.40;;
3767;SDS011;1899;49.966;7.106;2022-12-18T15:52:27;47.17;;;29.63;;
3767;SDS011;1899;49.966;7.106;2022-12-18T15:54:52;53.13;;;30.07;;
3767;SDS011;1899;49.966;7.106;2022-12-18T15:57:36;50.55;;;30.08;;
3767;SDS011;1899;49.966;7.106;2022-12-18T16:00:01;51.00;;;30.90;;
3767;SDS011;1899;49.966;7.106;2022-12-18T16:02:27;47.37;;;29.20;;
3767;SDS011;1899;49.966;7.106;2022-12-18T16:04:53;50.08;;;30.27;;
3767;SDS011;1899;49.966;7.106;2022-12-18T16:07:19;50.57;;;30.93;;
3767;SDS011;1899;49.966;7.106;2022-12-18T16:09:44;53.70;;;30.97;;
3767;SDS011;1899;49.966;7.106;2022-12-18T16:12:17;50.13;;;30.53;;
3767;SDS011;1899;49.966;7.106;2022-12-18T16:14:43;53.30;;;30.58;;
3767;SDS011;1899;49.966;7.106;2022-12-18T16:17:09;55.00;;;31.03;;
3767;SDS011;1899;49.966;7.106;2022-12-18T16:19:34;49.78;;;29.27;;
3767;SDS011;1899;49.966;7.106;2022-12-18T16:21:59;50.45;;;28.95;;
3767;SDS011;1899;49.966;7.106;2022-12-18T16:24:28;51.55;;;29.55;;
3767;SDS011;1899;49.966;7.106;2022-12-18T16:26:56;51.45;;;29.90;;
3767;SDS011;1899;49.966;7.106;2022-12-18T16:29:23;50.63;;;30.58;;
3767;SDS011;1899;49.966;7.106;2022-12-18T16:31:52;51.15;;;30.35;;
3767;SDS011;1899;49.966;7.106;2022-12-18T16:34:18;54.75;;;30.92;;
3767;SDS011;1899;49.966;7.106;2022-12-18T16:36:47;54.08;;;30.42;;
3767;SDS011;1899;49.966;7.106;2022-12-18T16:39:12;49.60;;;30.23;;
3767;SDS011;1899;49.966;7.106;2022-12-18T16:41:37;52.57;;;31.10;;
3767;SDS011;1899;49.966;7.106;2022-12-18T16:44:02;49.00;;;29.43;;
3767;SDS011;1899;49.966;7.106;2022-12-18T16:46:28;51.20;;;30.33;;
3767;SDS011;1899;49.966;7.106;2022-12-18T16:48:53;52.23;;;30.13;;
3767;SDS011;1899;49.966;7.106;2022-12-18T16:51:18;51.90;;;30.67;;
3767;SDS011;1899;49.966;7.106;2022-12-18T16:53:43;51.87;;;30.00;;
3767;SDS011;1899;49.966;7.106;2022-12-18T16:56:09;52.33;;;30.10;;
3767;SDS011;1899;49.966;7.106;2022-12-18T16:58:34;50.53;;;30.70;;
3767;SDS011;1899;49.966;7.106;2022-12-18T17:00:59;48.73;;;28.60;;
3767;SDS011;1899;49.966;7.106;2022-12-18T17:03:25;48.80;;;29.73;;
3767;SDS011;1899;49.966;7.106;2022-12-18T17:05:50;51.27;;;30.30;;
3767;SDS011;1899;49.966;7.106;2022-12-18T17:08:15;47.37;;;28.30;;
3767;SDS011;1899;49.966;7.106;2022-12-18T17:10:41;47.27;;;27.10;;
3767;SDS011;1899;49.966;7.106;2022-12-18T17:13:06;49.30;;;29.23;;
3767;SDS011;1899;49.966;7.106;2022-12-18T17:15:34;44.33;;;28.60;;
3767;SDS011;1899;49.966;7.106;2022-12-18T17:18:00;50.97;;;28.55;;
3767;SDS011;1899;49.966;7.106;2022-12-18T17:20:25;45.63;;;28.83;;
3767;SDS011;1899;49.966;7.106;2022-12-18T17:22:51;47.00;;;27.90;;
3767;SDS011;1899;49.966;7.106;2022-12-18T17:25:16;45.03;;;27.93;;
3767;SDS011;1899;49.966;7.106;2022-12-18T17:27:41;47.23;;;28.83;;
3767;SDS011;1899;49.966;7.106;2022-12-18T17:30:06;47.20;;;28.20;;
3767;SDS011;1899;49.966;7.106;2022-12-18T17:32:32;44.87;;;28.63;;
3767;SDS011;1899;49.966;7.106;2022-12-18T17:34:57;47.90;;;29.20;;
3767;SDS011;1899;49.966;7.106;2022-12-18T17:37:23;47.30;;;28.90;;
3767;SDS011;1899;49.966;7.106;2022-12-18T17:39:49;47.42;;;28.40;;
3767;SDS011;1899;49.966;7.106;2022-12-18T17:42:14;48.10;;;29.40;;
3767;SDS011;1899;49.966;7.106;2022-12-18T17:44:40;52.05;;;29.83;;
3767;SDS011;1899;49.966;7.106;2022-12-18T17:47:06;47.80;;;29.77;;
3767;SDS011;1899;49.966;7.106;2022-12-18T17:49:31;50.03;;;29.10;;
3767;SDS011;1899;49.966;7.106;2022-12-18T17:51:56;52.17;;;30.20;;
3767;SDS011;1899;49.966;7.106;2022-12-18T17:54:22;52.33;;;29.70;;
3767;SDS011;1899;49.966;7.106;2022-12-18T17:56:47;47.33;;;29.13;;
3767;SDS011;1899;49.966;7.106;2022-12-18T17:59:12;46.73;;;29.00;;
3767;SDS011;1899;49.966;7.106;2022-12-18T18:01:38;49.97;;;29.40;;
3767;SDS011;1899;49.966;7.106;2022-12-18T18:04:03;52.37;;;30.17;;
3767;SDS011;1899;49.966;7.106;2022-12-18T18:06:29;53.33;;;31.33;;
3767;SDS011;1899;49.966;7.106;2022-12-18T18:08:54;52.50;;;30.10;;
3767;SDS011;1899;49.966;7.106;2022-12-18T18:11:20;49.63;;;30.90;;
3767;SDS011;1899;49.966;7.106;2022-12-18T18:14:06;47.85;;;29.75;;
3767;SDS011;1899;49.966;7.106;2022-12-18T18:16:35;50.63;;;30.27;;
3767;SDS011;1899;49.966;7.106;2022-12-18T18:19:02;52.80;;;31.40;;
3767;SDS011;1899;49.966;7.106;2022-12-18T18:21:28;50.67;;;30.45;;
3767;SDS011;1899;49.966;7.106;2022-12-18T18:23:53;48.05;;;29.73;;
3767;SDS011;1899;49.966;7.106;2022-12-18T18:26:19;47.35;;;30.45;;
3767;SDS011;1899;49.966;7.106;2022-12-18T18:28:46;49.15;;;28.58;;
3767;SDS011;1899;49.966;7.106;2022-12-18T18:31:11;47.78;;;29.85;;
3767;SDS011;1899;49.966;7.106;2022-12-18T18:33:36;45.53;;;28.30;;
3767;SDS011;1899;49.966;7.106;2022-12-18T18:36:01;48.63;;;30.67;;
3767;SDS011;1899;49.966;7.106;2022-12-18T18:38:27;52.40;;;30.95;;
3767;SDS011;1899;49.966;7.106;2022-12-18T18:40:56;49.45;;;30.20;;
3767;SDS011;1899;49.966;7.106;2022-12-18T18:43:22;51.15;;;32.38;;
3767;SDS011;1899;49.966;7.106;2022-12-18T18:45:47;55.23;;;34.00;;
3767;SDS011;1899;49.966;7.106;2022-12-18T18:48:12;55.40;;;34.80;;
3767;SDS011;1899;49.966;7.106;2022-12-18T18:50:38;56.13;;;35.30;;
3767;SDS011;1899;49.966;7.106;2022-12-18T18:53:03;55.60;;;34.93;;
3767;SDS011;1899;49.966;7.106;2022-12-18T18:55:28;55.63;;;34.50;;
3767;SDS011;1899;49.966;7.106;2022-12-18T18:57:56;56.35;;;33.70;;
3767;SDS011;1899;49.966;7.106;2022-12-18T19:00:22;59.63;;;34.87;;
3767;SDS011;1899;49.966;7.106;2022-12-18T19:02:47;60.67;;;36.30;;
3767;SDS011;1899;49.966;7.106;2022-12-18T19:05:12;59.17;;;36.60;;
3767;SDS011;1899;49.966;7.106;2022-12-18T19:07:37;53.88;;;34.60;;
3767;SDS011;1899;49.966;7.106;2022-12-18T19:10:03;63.20;;;38.10;;
3767;SDS011;1899;49.966;7.106;2022-12-18T19:12:28;58.17;;;35.67;;
3767;SDS011;1899;49.966;7.106;2022-12-18T19:15:12;59.22;;;35.47;;
3767;SDS011;1899;49.966;7.106;2022-12-18T19:17:37;57.03;;;34.40;;
3767;SDS011;1899;49.966;7.106;2022-12-18T19:20:03;58.67;;;34.70;;
3767;SDS011;1899;49.966;7.106;2022-12-18T19:22:28;61.30;;;37.17;;
3767;SDS011;1899;49.966;7.106;2022-12-18T19:24:54;64.10;;;38.97;;
3767;SDS011;1899;49.966;7.106;2022-12-18T19:27:19;59.83;;;37.10;;
3767;SDS011;1899;49.966;7.106;2022-12-18T19:29:44;56.37;;;36.03;;
3767;SDS011;1899;49.966;7.106;2022-12-18T19:32:10;60.87;;;36.40;;
3767;SDS011;1899;49.966;7.106;2022-12-18T19:34:35;58.10;;;35.67;;
3767;SDS011;1899;49.966;7.106;2022-12-18T19:37:00;55.43;;;35.20;;
3767;SDS011;1899;49.966;7.106;2022-12-18T19:39:25;59.50;;;35.90;;
3767;SDS011;1899;49.966;7.106;2022-12-18T19:41:51;58.07;;;35.83;;
3767;SDS011;1899;49.966;7.106;2022-12-18T19:44:16;56.53;;;34.67;;
3767;SDS011;1899;49.966;7.106;2022-12-18T19:46:42;57.20;;;35.17;;
3767;SDS011;1899;49.966;7.106;2022-12-18T19:49:08;56.95;;;35.75;;
3767;SDS011;1899;49.966;7.106;2022-12-18T19:51:33;55.15;;;34.67;;
3767;SDS011;1899;49.966;7.106;2022-12-18T19:53:59;63.67;;;37.97;;
3767;SDS011;1899;49.966;7.106;2022-12-18T19:56:25;57.78;;;34.95;;
3767;SDS011;1899;49.966;7.106;2022-12-18T19:58:51;59.20;;;36.90;;
3767;SDS011;1899;49.966;7.106;2022-12-18T20:01:17;59.60;;;35.40;;
3767;SDS011;1899;49.966;7.106;2022-12-18T20:03:43;61.45;;;35.65;;
3767;SDS011;1899;49.966;7.106;2022-12-18T20:08:33;65.83;;;38.63;;
3767;SDS011;1899;49.966;7.106;2022-12-18T20:10:58;65.20;;;37.00;;
3767;SDS011;1899;49.966;7.106;2022-12-18T20:13:23;54.50;;;34.73;;
3767;SDS011;1899;49.966;7.106;2022-12-18T20:15:49;56.53;;;36.37;;
3767;SDS011;1899;49.966;7.106;2022-12-18T20:18:14;53.37;;;34.40;;
3767;SDS011;1899;49.966;7.106;2022-12-18T20:20:39;56.03;;;33.60;;
3767;SDS011;1899;49.966;7.106;2022-12-18T20:23:04;54.87;;;33.30;;
3767;SDS011;1899;49.966;7.106;2022-12-18T20:25:30;55.23;;;33.87;;
3767;SDS011;1899;49.966;7.106;2022-12-18T20:27:55;54.20;;;33.60;;
3767;SDS011;1899;49.966;7.106;2022-12-18T20:30:20;51.10;;;31.93;;
3767;SDS011;1899;49.966;7.106;2022-12-18T20:32:45;51.30;;;33.27;;
3767;SDS011;1899;49.966;7.106;2022-12-18T20:35:11;51.07;;;31.63;;
3767;SDS011;1899;49.966;7.106;2022-12-18T20:37:36;51.40;;;31.10;;
3767;SDS011;1899;49.966;7.106;2022-12-18T20:40:01;51.40;;;32.43;;
3767;SDS011;1899;49.966;7.106;2022-12-18T20:42:26;55.53;;;34.20;;
3767;SDS011;1899;49.966;7.106;2022-12-18T20:44:52;52.93;;;32.30;;
3767;SDS011;1899;49.966;7.106;2022-12-18T20:47:17;53.63;;;34.80;;
3767;SDS011;1899;49.966;7.106;2022-12-18T20:49:42;55.83;;;33.07;;
3767;SDS011;1899;49.966;7.106;2022-12-18T20:52:08;56.92;;;33.65;;
3767;SDS011;1899;49.966;7.106;2022-12-18T20:54:33;54.20;;;34.23;;
3767;SDS011;1899;49.966;7.106;2022-12-18T20:56:59;58.17;;;34.63;;
3767;SDS011;1899;49.966;7.106;2022-12-18T20:59:24;63.53;;;36.87;;
